Aviation Digital Data Service (ADDS)

Output produced by METARs form (0230 UTC 25 January 2020)
found at http://www.aviationweather.gov/metar/data/
 
METAR text: ZJHK 250200Z 10005MPS 9999 BKN016 24/20 Q1015 NOSIG
Conditions at: ZJHK (HAIKOU , CN) observed 0200 UTC 25 January 2020
Temperature: 24.0°C (75°F)
Dewpoint: 20.0°C (68°F) [RH = 78%]
Pressure (altimeter): 29.97 inches Hg (1015.0 mb)
Winds: from the E (100 degrees) at 12 MPH (10 knots; 5.1 m/s)
Visibility: 6 or more miles (10+ km)
Ceiling: 1600 feet AGL
Clouds: broken clouds at 1600 feet AGL
Weather: no significant weather observed at this time

METAR text: ZJHK 250100Z 11004MPS 9999 FEW020 23/22 Q1015 NOSIG
Conditions at: ZJHK (HAIKOU , CN) observed 0100 UTC 25 January 2020
Temperature: 23.0°C (73°F)
Dewpoint: 22.0°C (72°F) [RH = 94%]
Pressure (altimeter): 29.97 inches Hg (1015.0 mb)
Winds: from the ESE (110 degrees) at 9 MPH (8 knots; 4.1 m/s)
Visibility: 6 or more miles (10+ km)
Ceiling: at least 12,000 feet AGL
Clouds: few clouds at 2000 feet AGL
Weather: no significant weather observed at this time

METAR text: ZJHK 250000Z 08003MPS 6000 SCT046 21/21 Q1015 NOSIG
Conditions at: ZJHK (HAIKOU , CN) observed 0000 UTC 25 January 2020
Temperature: 21.0°C (70°F)
Dewpoint: 21.0°C (70°F) [RH = 100%]
Pressure (altimeter): 29.97 inches Hg (1015.0 mb)
Winds: from the E (80 degrees) at 7 MPH (6 knots; 3.1 m/s)
Visibility: 4 miles ( 6 km)
Ceiling: at least 12,000 feet AGL
Clouds: scattered clouds at 4600 feet AGL
Weather: no significant weather observed at this time

METAR text: ZJHK 242300Z 11002MPS 4000 BR BCFG SCT046 20/19 Q1015 NOSIG
Conditions at: ZJHK (HAIKOU , CN) observed 2300 UTC 24 January 2020
Temperature: 20.0°C (68°F)
Dewpoint: 19.0°C (66°F) [RH = 94%]
Pressure (altimeter): 29.97 inches Hg (1015.0 mb)
Winds: from the ESE (110 degrees) at 5 MPH (4 knots; 2.1 m/s)
Visibility: 2.49 miles (4.01 km)
Ceiling: at least 12,000 feet AGL
Clouds: scattered clouds at 4600 feet AGL
Weather: BR BCFG  (mist, patches of fog)

METAR text: ZJHK 242200Z 11002MPS 3500 BR FEW010 SCT046 20/19 Q1014 NOSIG
Conditions at: ZJHK (HAIKOU , CN) observed 2200 UTC 24 January 2020
Temperature: 20.0°C (68°F)
Dewpoint: 19.0°C (66°F) [RH = 94%]
Pressure (altimeter): 29.94 inches Hg (1014.0 mb)
Winds: from the ESE (110 degrees) at 5 MPH (4 knots; 2.1 m/s)
Visibility: 2.17 miles (3.49 km)
Ceiling: at least 12,000 feet AGL
Clouds: few clouds at 1000 feet AGL
scattered clouds at 4600 feet AGL
Weather: BR  (mist)

METAR text: ZJHK 242100Z 09002MPS 2500 BR SCT010 BKN046 20/19 Q1015 BECMG AT2300 1200
Conditions at: ZJHK (HAIKOU , CN) observed 2100 UTC 24 January 2020
Temperature: 20.0°C (68°F)
Dewpoint: 19.0°C (66°F) [RH = 94%]
Pressure (altimeter): 29.97 inches Hg (1015.0 mb)
Winds: from the E (90 degrees) at 5 MPH (4 knots; 2.1 m/s)
Visibility: 1.55 miles (2.49 km)
Ceiling: 4600 feet AGL
Clouds: scattered clouds at 1000 feet AGL
broken clouds at 4600 feet AGL
Weather: BR  (mist)

METAR text: ZJHK 242000Z 06002MPS 030V090 3000 BR BKN007 20/19 Q1015 NOSIG
Conditions at: ZJHK (HAIKOU , CN) observed 2000 UTC 24 January 2020
Temperature: 20.0°C (68°F)
Dewpoint: 19.0°C (66°F) [RH = 94%]
Pressure (altimeter): 29.97 inches Hg (1015.0 mb)
Winds: from the ENE (60 degrees) at 5 MPH (4 knots; 2.1 m/s)
Visibility: 1.86 miles (2.99 km)
Ceiling: 700 feet AGL
Clouds: broken clouds at 700 feet AGL
Weather: BR  (mist)

METAR text: ZJHK 241900Z 11002MPS 080V140 7000 FEW015 20/19 Q1015 NOSIG
Conditions at: ZJHK (HAIKOU , CN) observed 1900 UTC 24 January 2020
Temperature: 20.0°C (68°F)
Dewpoint: 19.0°C (66°F) [RH = 94%]
Pressure (altimeter): 29.97 inches Hg (1015.0 mb)
Winds: from the ESE (110 degrees) at 5 MPH (4 knots; 2.1 m/s)
Visibility: 4 miles ( 7 km)
Ceiling: at least 12,000 feet AGL
Clouds: few clouds at 1500 feet AGL
Weather: no significant weather observed at this time

METAR text: ZJHK 241800Z 14002MPS 8000 SCT016 20/19 Q1015 NOSIG
Conditions at: ZJHK (HAIKOU , CN) observed 1800 UTC 24 January 2020
Temperature: 20.0°C (68°F)
Dewpoint: 19.0°C (66°F) [RH = 94%]
Pressure (altimeter): 29.97 inches Hg (1015.0 mb)
Winds: from the SE (140 degrees) at 5 MPH (4 knots; 2.1 m/s)
Visibility: 5 miles ( 8 km)
Ceiling: at least 12,000 feet AGL
Clouds: scattered clouds at 1600 feet AGL
Weather: no significant weather observed at this time

METAR text: ZJHK 241700Z 14002MPS 8000 SCT016 20/19 Q1016 NOSIG
Conditions at: ZJHK (HAIKOU , CN) observed 1700 UTC 24 January 2020
Temperature: 20.0°C (68°F)
Dewpoint: 19.0°C (66°F) [RH = 94%]
Pressure (altimeter): 30.00 inches Hg (1016.0 mb)
Winds: from the SE (140 degrees) at 5 MPH (4 knots; 2.1 m/s)
Visibility: 5 miles ( 8 km)
Ceiling: at least 12,000 feet AGL
Clouds: scattered clouds at 1600 feet AGL
Weather: no significant weather observed at this time

METAR text: ZJHK 241600Z 11003MPS CAVOK 20/19 Q1016 NOSIG
Conditions at: ZJHK (HAIKOU , CN) observed 1600 UTC 24 January 2020
Temperature: 20.0°C (68°F)
Dewpoint: 19.0°C (66°F) [RH = 94%]
Pressure (altimeter): 30.00 inches Hg (1016.0 mb)
Winds: from the ESE (110 degrees) at 7 MPH (6 knots; 3.1 m/s)
Visibility: 6 or more miles (10+ km)
Ceiling: ceiling and visibility are OK
Clouds: unknown
Weather: no significant weather observed at this time

METAR text: ZJHK 241500Z 11003MPS CAVOK 21/19 Q1016 NOSIG
Conditions at: ZJHK (HAIKOU , CN) observed 1500 UTC 24 January 2020
Temperature: 21.0°C (70°F)
Dewpoint: 19.0°C (66°F) [RH = 88%]
Pressure (altimeter): 30.00 inches Hg (1016.0 mb)
Winds: from the ESE (110 degrees) at 7 MPH (6 knots; 3.1 m/s)
Visibility: 6 or more miles (10+ km)
Ceiling: ceiling and visibility are OK
Clouds: unknown
Weather: no significant weather observed at this time

METAR text: ZJHK 241400Z 12002MPS 090V160 CAVOK 21/19 Q1016 NOSIG
Conditions at: ZJHK (HAIKOU , CN) observed 1400 UTC 24 January 2020
Temperature: 21.0°C (70°F)
Dewpoint: 19.0°C (66°F) [RH = 88%]
Pressure (altimeter): 30.00 inches Hg (1016.0 mb)
Winds: from the ESE (120 degrees) at 5 MPH (4 knots; 2.1 m/s)
Visibility: 6 or more miles (10+ km)
Ceiling: ceiling and visibility are OK
Clouds: unknown
Weather: no significant weather observed at this time

METAR text: ZJHK 241300Z 11002MPS 090V150 9999 FEW046 21/19 Q1015 NOSIG
Conditions at: ZJHK (HAIKOU , CN) observed 1300 UTC 24 January 2020
Temperature: 21.0°C (70°F)
Dewpoint: 19.0°C (66°F) [RH = 88%]
Pressure (altimeter): 29.97 inches Hg (1015.0 mb)
Winds: from the ESE (110 degrees) at 5 MPH (4 knots; 2.1 m/s)
Visibility: 6 or more miles (10+ km)
Ceiling: at least 12,000 feet AGL
Clouds: few clouds at 4600 feet AGL
Weather: no significant weather observed at this time

METAR text: ZJHK 241200Z 11003MPS 9999 FEW046 22/19 Q1015 NOSIG
Conditions at: ZJHK (HAIKOU , CN) observed 1200 UTC 24 January 2020
Temperature: 22.0°C (72°F)
Dewpoint: 19.0°C (66°F) [RH = 83%]
Pressure (altimeter): 29.97 inches Hg (1015.0 mb)
Winds: from the ESE (110 degrees) at 7 MPH (6 knots; 3.1 m/s)
Visibility: 6 or more miles (10+ km)
Ceiling: at least 12,000 feet AGL
Clouds: few clouds at 4600 feet AGL
Weather: no significant weather observed at this time

METAR text: ZJHK 241100Z 12004MPS 9999 FEW046 23/19 Q1014 NOSIG
Conditions at: ZJHK (HAIKOU , CN) observed 1100 UTC 24 January 2020
Temperature: 23.0°C (73°F)
Dewpoint: 19.0°C (66°F) [RH = 78%]
Pressure (altimeter): 29.94 inches Hg (1014.0 mb)
Winds: from the ESE (120 degrees) at 9 MPH (8 knots; 4.1 m/s)
Visibility: 6 or more miles (10+ km)
Ceiling: at least 12,000 feet AGL
Clouds: few clouds at 4600 feet AGL
Weather: no significant weather observed at this time

METAR text: ZJHK 241000Z 13004MPS 090V150 9999 FEW030 25/19 Q1014 NOSIG
Conditions at: ZJHK (HAIKOU , CN) observed 1000 UTC 24 January 2020
Temperature: 25.0°C (77°F)
Dewpoint: 19.0°C (66°F) [RH = 69%]
Pressure (altimeter): 29.94 inches Hg (1014.0 mb)
Winds: from the SE (130 degrees) at 9 MPH (8 knots; 4.1 m/s)
Visibility: 6 or more miles (10+ km)
Ceiling: at least 12,000 feet AGL
Clouds: few clouds at 3000 feet AGL
Weather: no significant weather observed at this time

METAR text: ZJHK 240900Z 12005MPS 090V160 9999 FEW030 26/19 Q1013 NOSIG
Conditions at: ZJHK (HAIKOU , CN) observed 0900 UTC 24 January 2020
Temperature: 26.0°C (79°F)
Dewpoint: 19.0°C (66°F) [RH = 65%]
Pressure (altimeter): 29.91 inches Hg (1013.0 mb)
Winds: from the ESE (120 degrees) at 12 MPH (10 knots; 5.1 m/s)
Visibility: 6 or more miles (10+ km)
Ceiling: at least 12,000 feet AGL
Clouds: few clouds at 3000 feet AGL
Weather: no significant weather observed at this time

METAR text: ZJHK 240800Z 13005MPS 100V170 9999 SCT026 27/19 Q1014 NOSIG
Conditions at: ZJHK (HAIKOU , CN) observed 0800 UTC 24 January 2020
Temperature: 27.0°C (81°F)
Dewpoint: 19.0°C (66°F) [RH = 62%]
Pressure (altimeter): 29.94 inches Hg (1014.0 mb)
Winds: from the SE (130 degrees) at 12 MPH (10 knots; 5.1 m/s)
Visibility: 6 or more miles (10+ km)
Ceiling: at least 12,000 feet AGL
Clouds: scattered clouds at 2600 feet AGL
Weather: no significant weather observed at this time

METAR text: ZJHK 240700Z 13004MPS 100V170 9999 SCT026 BKN043 26/19 Q1014 NOSIG
Conditions at: ZJHK (HAIKOU , CN) observed 0700 UTC 24 January 2020
Temperature: 26.0°C (79°F)
Dewpoint: 19.0°C (66°F) [RH = 65%]
Pressure (altimeter): 29.94 inches Hg (1014.0 mb)
Winds: from the SE (130 degrees) at 9 MPH (8 knots; 4.1 m/s)
Visibility: 6 or more miles (10+ km)
Ceiling: 4300 feet AGL
Clouds: scattered clouds at 2600 feet AGL
broken clouds at 4300 feet AGL
Weather: no significant weather observed at this time

METAR text: ZJHK 240600Z 13005MPS 100V180 9999 SCT026 BKN043 26/19 Q1015 NOSIG
Conditions at: ZJHK (HAIKOU , CN) observed 0600 UTC 24 January 2020
Temperature: 26.0°C (79°F)
Dewpoint: 19.0°C (66°F) [RH = 65%]
Pressure (altimeter): 29.97 inches Hg (1015.0 mb)
Winds: from the SE (130 degrees) at 12 MPH (10 knots; 5.1 m/s)
Visibility: 6 or more miles (10+ km)
Ceiling: 4300 feet AGL
Clouds: scattered clouds at 2600 feet AGL
broken clouds at 4300 feet AGL
Weather: no significant weather observed at this time

METAR text: ZJHK 240500Z 15005MPS 110V180 9999 BKN026 26/20 Q1016 NOSIG
Conditions at: ZJHK (HAIKOU , CN) observed 0500 UTC 24 January 2020
Temperature: 26.0°C (79°F)
Dewpoint: 20.0°C (68°F) [RH = 70%]
Pressure (altimeter): 30.00 inches Hg (1016.0 mb)
Winds: from the SSE (150 degrees) at 12 MPH (10 knots; 5.1 m/s)
Visibility: 6 or more miles (10+ km)
Ceiling: 2600 feet AGL
Clouds: broken clouds at 2600 feet AGL
Weather: no significant weather observed at this time

METAR text: ZJHK 240400Z 12005MPS 090V170 9999 BKN026 26/20 Q1017 NOSIG
Conditions at: ZJHK (HAIKOU , CN) observed 0400 UTC 24 January 2020
Temperature: 26.0°C (79°F)
Dewpoint: 20.0°C (68°F) [RH = 70%]
Pressure (altimeter): 30.03 inches Hg (1017.0 mb)
Winds: from the ESE (120 degrees) at 12 MPH (10 knots; 5.1 m/s)
Visibility: 6 or more miles (10+ km)
Ceiling: 2600 feet AGL
Clouds: broken clouds at 2600 feet AGL
Weather: no significant weather observed at this time

METAR text: ZJHK 240300Z 14004MPS 110V190 9999 BKN020 26/22 Q1018 NOSIG
Conditions at: ZJHK (HAIKOU , CN) observed 0300 UTC 24 January 2020
Temperature: 26.0°C (79°F)
Dewpoint: 22.0°C (72°F) [RH = 79%]
Pressure (altimeter): 30.06 inches Hg (1018.0 mb)
Winds: from the SE (140 degrees) at 9 MPH (8 knots; 4.1 m/s)
Visibility: 6 or more miles (10+ km)
Ceiling: 2000 feet AGL
Clouds: broken clouds at 2000 feet AGL
Weather: no significant weather observed at this time

METAR text: ZJHK 240200Z 13004MPS 110V170 9999 FEW016 24/22 Q1018 NOSIG
Conditions at: ZJHK (HAIKOU , CN) observed 0200 UTC 24 January 2020
Temperature: 24.0°C (75°F)
Dewpoint: 22.0°C (72°F) [RH = 89%]
Pressure (altimeter): 30.06 inches Hg (1018.0 mb)
Winds: from the SE (130 degrees) at 9 MPH (8 knots; 4.1 m/s)
Visibility: 6 or more miles (10+ km)
Ceiling: at least 12,000 feet AGL
Clouds: few clouds at 1600 feet AGL
Weather: no significant weather observed at this time

METAR text: ZJHK 240100Z 12003MPS CAVOK 22/22 Q1017 NOSIG
Conditions at: ZJHK (HAIKOU , CN) observed 0100 UTC 24 January 2020
Temperature: 22.0°C (72°F)
Dewpoint: 22.0°C (72°F) [RH = 100%]
Pressure (altimeter): 30.03 inches Hg (1017.0 mb)
Winds: from the ESE (120 degrees) at 7 MPH (6 knots; 3.1 m/s)
Visibility: 6 or more miles (10+ km)
Ceiling: ceiling and visibility are OK
Clouds: unknown
Weather: no significant weather observed at this time

METAR text: ZJHK 240000Z 11002MPS 4000 BR FEW023 20/20 Q1016 NOSIG
Conditions at: ZJHK (HAIKOU , CN) observed 0000 UTC 24 January 2020
Temperature: 20.0°C (68°F)
Dewpoint: 20.0°C (68°F) [RH = 100%]
Pressure (altimeter): 30.00 inches Hg (1016.0 mb)
Winds: from the ESE (110 degrees) at 5 MPH (4 knots; 2.1 m/s)
Visibility: 2.49 miles (4.01 km)
Ceiling: at least 12,000 feet AGL
Clouds: few clouds at 2300 feet AGL
Weather: BR  (mist)

METAR text: ZJHK 232300Z 10001MPS 4000 BR FEW004 20/20 Q1016 NOSIG
Conditions at: ZJHK (HAIKOU , CN) observed 2300 UTC 23 January 2020
Temperature: 20.0°C (68°F)
Dewpoint: 20.0°C (68°F) [RH = 100%]
Pressure (altimeter): 30.00 inches Hg (1016.0 mb)
Winds: from the E (100 degrees) at 2 MPH (2 knots; 1.0 m/s)
Visibility: 2.49 miles (4.01 km)
Ceiling: at least 12,000 feet AGL
Clouds: few clouds at 400 feet AGL
Weather: BR  (mist)

METAR text: ZJHK 232200Z 12003MPS 100V160 4000 BR SCT002 BKN003 21/20 Q1015 BECMG 1000 BR
Conditions at: ZJHK (HAIKOU , CN) observed 2200 UTC 23 January 2020
Temperature: 21.0°C (70°F)
Dewpoint: 20.0°C (68°F) [RH = 94%]
Pressure (altimeter): 29.97 inches Hg (1015.0 mb)
Winds: from the ESE (120 degrees) at 7 MPH (6 knots; 3.1 m/s)
Visibility: 2.49 miles (4.01 km)
Ceiling: 300 feet AGL
Clouds: scattered clouds at 200 feet AGL
broken clouds at 300 feet AGL
Weather: BR  (mist)

METAR text: ZJHK 232100Z 11002MPS 1400 R09/1900U BR BKN002 21/21 Q1015 BECMG 0700 FG
Conditions at: ZJHK (HAIKOU , CN) observed 2100 UTC 23 January 2020
Temperature: 21.0°C (70°F)
Dewpoint: 21.0°C (70°F) [RH = 100%]
Pressure (altimeter): 29.97 inches Hg (1015.0 mb)
Winds: from the ESE (110 degrees) at 5 MPH (4 knots; 2.1 m/s)
Visibility: 0.87 miles (1.40 km)
Ceiling: 200 feet AGL
Clouds: broken clouds at 200 feet AGL
Weather: BR  (mist)

METAR text: ZJHK 232000Z 10002MPS 0800 R09/1100D FG VV002 21/20 Q1015 BECMG TL2030 0600 FG
Conditions at: ZJHK (HAIKOU , CN) observed 2000 UTC 23 January 2020
Temperature: 21.0°C (70°F)
Dewpoint: 20.0°C (68°F) [RH = 94%]
Pressure (altimeter): 29.97 inches Hg (1015.0 mb)
Winds: from the E (100 degrees) at 5 MPH (4 knots; 2.1 m/s)
Visibility: 0.50 miles (0.80 km)
Ceiling: indefinite ceiling with vertical visibility of 200 feet AGL
Clouds: obscured sky
Weather: FG  (fog)

METAR text: ZJHK 231900Z 14002MPS 110V180 3500 BR FEW002 BKN003 21/21 Q1015 NOSIG
Conditions at: ZJHK (HAIKOU , CN) observed 1900 UTC 23 January 2020
Temperature: 21.0°C (70°F)
Dewpoint: 21.0°C (70°F) [RH = 100%]
Pressure (altimeter): 29.97 inches Hg (1015.0 mb)
Winds: from the SE (140 degrees) at 5 MPH (4 knots; 2.1 m/s)
Visibility: 2.17 miles (3.49 km)
Ceiling: 300 feet AGL
Clouds: few clouds at 200 feet AGL
broken clouds at 300 feet AGL
Weather: BR  (mist)

METAR text: ZJHK 231800Z 14003MPS 5000 BR FEW002 BKN005 21/21 Q1016 BECMG TL1840 SCT005 BKN015
Conditions at: ZJHK (HAIKOU , CN) observed 1800 UTC 23 January 2020
Temperature: 21.0°C (70°F)
Dewpoint: 21.0°C (70°F) [RH = 100%]
Pressure (altimeter): 30.00 inches Hg (1016.0 mb)
Winds: from the SE (140 degrees) at 7 MPH (6 knots; 3.1 m/s)
Visibility: 3 miles ( 5 km)
Ceiling: 500 feet AGL
Clouds: few clouds at 200 feet AGL
broken clouds at 500 feet AGL
Weather: BR  (mist)

METAR text: ZJHK 231700Z 12002MPS 5000 BR BCFG FEW002 SCT004 20/20 Q1016 NOSIG
Conditions at: ZJHK (HAIKOU , CN) observed 1700 UTC 23 January 2020
Temperature: 20.0°C (68°F)
Dewpoint: 20.0°C (68°F) [RH = 100%]
Pressure (altimeter): 30.00 inches Hg (1016.0 mb)
Winds: from the ESE (120 degrees) at 5 MPH (4 knots; 2.1 m/s)
Visibility: 3 miles ( 5 km)
Ceiling: at least 12,000 feet AGL
Clouds: few clouds at 200 feet AGL
scattered clouds at 400 feet AGL
Weather: BR BCFG  (mist, patches of fog)

METAR text: ZJHK 231600Z 12001MPS 7000 FEW004 21/20 Q1016 NOSIG
Conditions at: ZJHK (HAIKOU , CN) observed 1600 UTC 23 January 2020
Temperature: 21.0°C (70°F)
Dewpoint: 20.0°C (68°F) [RH = 94%]
Pressure (altimeter): 30.00 inches Hg (1016.0 mb)
Winds: from the ESE (120 degrees) at 2 MPH (2 knots; 1.0 m/s)
Visibility: 4 miles ( 7 km)
Ceiling: at least 12,000 feet AGL
Clouds: few clouds at 400 feet AGL
Weather: no significant weather observed at this time

METAR text: ZJHK 231500Z 12002MPS 9000 NSC 21/20 Q1016 NOSIG
Conditions at: ZJHK (HAIKOU , CN) observed 1500 UTC 23 January 2020
Temperature: 21.0°C (70°F)
Dewpoint: 20.0°C (68°F) [RH = 94%]
Pressure (altimeter): 30.00 inches Hg (1016.0 mb)
Winds: from the ESE (120 degrees) at 5 MPH (4 knots; 2.1 m/s)
Visibility: 6 miles ( 9 km)
Ceiling: at least 12,000 feet AGL
Clouds: sky clear below 12,000 feet AGL
Weather: no significant weather observed at this time

Forecast for: AMD
Text: TAF AMD ZJHK 250218Z 2500/2524 11004MPS 6000 SCT016 TX27/2506Z TN17/2523Z
Forecast period: 0000 to 2000 UTC 25 January 2020
Forecast type: FROM: standard forecast or significant change
Winds: from the ESE (110 degrees) at 9 MPH (8 knots; 4.1 m/s)
Visibility: 4 miles (6 km)
Ceiling: at least 12,000 feet AGL
Clouds: scattered clouds at 1600 feet AGL
Weather: no significant weather forecast for this period
Text: BECMG 2520/2521 36006G12MPS BKN010 FEW026CB BKN030
Forecast period: 2000 UTC 25 January 2020 to 0000 UTC 26 January 2020
Forecast type: BECOMING: Conditions expected to become as follows by 2100 UTC 25 January 2020
Winds: from the N (360 degrees) at 14 MPH (12 knots; 6.2 m/s)
gusting to 26 MPH (23 knots; 11.8 m/s)
Visibility: 4 miles (6 km)
Ceiling: 1000 feet AGL
Clouds: broken clouds at 1000 feet AGL
few clouds at 2600 feet AGL
broken clouds at 3000 feet AGL
Weather: no significant weather forecast for this period
Text: TEMPO 2521/2524 -TSRA
Forecast period: 2100 UTC 25 January 2020 to 0000 UTC 26 January 2020
Forecast type: TEMPORARY: The following changes expected for less than half the time period
Visibility: missing
Ceiling: unknown
Clouds: missing
Weather: -TSRA  (light rain associated with thunderstorm(s))